Time;durP1;ratioP1;P1;durP2;ratioP2;P2;SDS_P1;SDS_P2;PMS_P1;PMS_P2;Temp;Humidity;BMP_temperature;BMP_pressure;BME280_temperature;BME280_humidity;BME280_pressure;Samples;Min_cycle;Max_cycle;Signal;HPM_P1;HPM_P2
2023/03/18 00:01:26;;;;;;;0.93;0.93;;;;;;;9.13;80.93;95014.84;4374963;32;20274;-57
2023/03/18 00:03:51;;;;;;;1.50;1.50;;;;;;;9.20;80.48;95009.13;4386220;32;20259;-55
2023/03/18 00:06:19;;;;;;;1.07;1.07;;;;;;;9.03;81.51;95015.00;4390723;32;20207;-54
2023/03/18 00:08:46;;;;;;;1.53;1.53;;;;;;;9.20;80.76;95006.50;4386004;32;20181;-56
2023/03/18 00:11:14;;;;;;;1.33;1.23;;;;;;;9.40;79.79;95016.72;4384529;32;20284;-55
2023/03/18 00:13:41;;;;;;;1.93;1.93;;;;;;;9.14;80.97;95013.75;4390094;32;20280;-53
2023/03/18 00:16:10;;;;;;;2.47;1.47;;;;;;;9.40;79.79;95008.78;4374884;32;20268;-55
2023/03/18 00:18:35;;;;;;;2.80;1.80;;;;;;;9.39;79.63;95020.44;4390321;32;20280;-55
2023/03/18 00:21:02;;;;;;;1.43;1.33;;;;;;;9.15;80.12;95023.25;4387994;32;20340;-56
2023/03/18 00:23:28;;;;;;;1.13;1.13;;;;;;;9.17;80.02;95021.09;4386991;32;20262;-56
2023/03/18 00:25:55;;;;;;;1.50;1.50;;;;;;;9.31;79.56;95026.44;4376944;32;20292;-56
2023/03/18 00:28:22;;;;;;;1.83;1.73;;;;;;;9.35;79.18;95027.41;4387358;32;20204;-55
2023/03/18 00:30:48;;;;;;;1.53;1.47;;;;;;;9.24;79.47;95031.31;4377473;32;20310;-54
2023/03/18 00:33:15;;;;;;;1.67;1.57;;;;;;;9.17;79.98;95026.38;4377821;32;20301;-54
2023/03/18 00:35:41;;;;;;;1.57;1.57;;;;;;;9.05;80.18;95038.50;4389654;32;20363;-53
2023/03/18 00:38:08;;;;;;;1.67;1.57;;;;;;;9.19;80.11;95031.37;4388360;32;20321;-55
2023/03/18 00:40:52;;;;;;;1.70;1.57;;;;;;;9.04;80.30;95032.44;4371171;32;20481;-56
2023/03/18 00:43:28;;;;;;;1.47;1.43;;;;;;;8.99;80.56;95035.16;4388002;32;20280;-54
2023/03/18 00:45:54;;;;;;;1.57;1.57;;;;;;;9.10;80.32;95035.78;4383111;32;20268;-56
2023/03/18 00:48:20;;;;;;;1.67;1.57;;;;;;;8.95;80.33;95039.44;4363412;32;20369;-53
2023/03/18 00:50:45;;;;;;;1.77;1.67;;;;;;;8.97;80.84;95037.31;4380497;32;20307;-55
2023/03/18 00:53:11;;;;;;;2.00;1.47;;;;;;;9.16;79.62;95035.41;4362916;32;20199;-56
2023/03/18 00:55:38;;;;;;;2.07;1.97;;;;;;;9.13;79.59;95043.16;4369006;32;20176;-56
2023/03/18 00:58:03;;;;;;;0.93;0.93;;;;;;;9.06;79.85;95045.38;4367212;32;20382;-55
2023/03/18 01:00:29;;;;;;;1.63;1.30;;;;;;;9.06;79.45;95048.81;4375088;32;20280;-56
2023/03/18 01:02:55;;;;;;;0.97;0.97;;;;;;;9.05;79.33;95049.09;4379833;32;20188;-53
2023/03/18 01:05:21;;;;;;;1.10;1.10;;;;;;;8.96;79.78;95052.41;4390029;32;20243;-56
2023/03/18 01:07:48;;;;;;;1.93;1.83;;;;;;;8.96;79.94;95046.31;4378682;32;20255;-56
2023/03/18 01:10:13;;;;;;;2.20;2.10;;;;;;;9.16;78.92;95053.13;4387244;32;20298;-55
2023/03/18 01:12:40;;;;;;;1.67;1.63;;;;;;;9.08;79.07;95045.88;4380159;32;20311;-55
2023/03/18 01:15:07;;;;;;;1.67;1.63;;;;;;;9.12;78.96;95041.59;4371302;32;20180;-55
2023/03/18 01:17:32;;;;;;;2.37;2.27;;;;;;;8.99;79.42;95044.97;4378862;32;20276;-55
2023/03/18 01:19:58;;;;;;;2.50;2.40;;;;;;;8.80;80.03;95043.12;4378997;32;20201;-56
2023/03/18 01:22:23;;;;;;;2.57;1.80;;;;;;;8.71;80.71;95044.88;4382172;32;20196;-54
2023/03/18 01:24:48;;;;;;;0.87;0.87;;;;;;;9.00;79.29;95036.72;4366754;32;20188;-53
2023/03/18 01:27:14;;;;;;;1.80;1.70;;;;;;;8.78;80.33;95037.34;4377504;32;20184;-55
2023/03/18 01:29:39;;;;;;;3.03;2.27;;;;;;;8.87;80.13;95038.28;4394719;32;20180;-54
2023/03/18 01:32:05;;;;;;;2.83;1.80;;;;;;;8.87;79.74;95042.78;4390588;32;20225;-55
2023/03/18 01:34:31;;;;;;;1.70;1.63;;;;;;;8.86;79.63;95042.00;4390876;32;20207;-55
2023/03/18 01:36:57;;;;;;;8.70;2.13;;;;;;;8.82;79.90;95040.19;4377074;32;20288;-53
2023/03/18 01:39:23;;;;;;;1.10;1.10;;;;;;;8.78;80.56;95039.19;4376551;32;20188;-55
2023/03/18 01:41:49;;;;;;;1.03;1.03;;;;;;;8.71;80.35;95031.66;4381720;32;20288;-55
2023/03/18 01:44:18;;;;;;;1.87;1.77;;;;;;;8.81;80.15;95031.47;4392593;32;20207;-56
2023/03/18 01:46:51;;;;;;;1.00;1.00;;;;;;;8.78;80.10;95040.00;4380449;32;20355;-53
2023/03/18 01:49:24;;;;;;;1.03;1.03;;;;;;;8.70;80.09;95038.03;4386517;32;20295;-52
2023/03/18 01:52:19;;;;;;;1.73;1.73;;;;;;;8.68;80.18;95042.81;4376168;32;20292;-56
2023/03/18 01:54:59;;;;;;;0.73;0.73;;;;;;;8.72;80.31;95040.38;4364375;32;20277;-55
2023/03/18 01:57:26;;;;;;;1.93;1.83;;;;;;;8.64;81.05;95049.72;4390958;32;20276;-53
2023/03/18 01:59:54;;;;;;;1.43;1.33;;;;;;;8.69;81.05;95041.72;4379014;32;20326;-55
2023/03/18 02:02:20;;;;;;;1.47;1.37;;;;;;;8.70;80.61;95047.81;4380111;32;20300;-54
2023/03/18 02:04:50;;;;;;;1.97;1.87;;;;;;;8.68;80.91;95048.09;4392016;32;20227;-52
2023/03/18 02:07:22;;;;;;;1.47;1.37;;;;;;;8.64;81.28;95044.44;4392491;32;20327;-53
2023/03/18 02:09:48;;;;;;;1.50;1.40;;;;;;;8.74;80.29;95052.22;4390737;32;20351;-56
2023/03/18 02:12:20;;;;;;;1.13;1.13;;;;;;;8.95;79.17;95047.37;4371780;32;20285;-58
2023/03/18 02:14:47;;;;;;;1.13;1.13;;;;;;;8.73;79.97;95053.28;4373325;32;20353;-55
2023/03/18 02:17:18;;;;;;;1.33;1.33;;;;;;;8.84;79.12;95044.13;4379506;32;20310;-55
2023/03/18 02:19:53;;;;;;;9.20;1.50;;;;;;;8.92;78.20;95048.78;4389147;32;20279;-54
2023/03/18 02:22:23;;;;;;;2.13;2.03;;;;;;;8.89;78.27;95051.22;4384014;32;20302;-53
2023/03/18 02:25:07;;;;;;;1.87;1.60;;;;;;;9.03;77.86;95052.03;4378203;32;20294;-54
2023/03/18 02:27:36;;;;;;;1.97;1.83;;;;;;;8.76;78.89;95068.59;4377683;32;20292;-56
2023/03/18 02:30:11;;;;;;;1.80;1.17;;;;;;;8.80;78.50;95064.28;4375653;32;20292;-56
2023/03/18 02:32:40;;;;;;;1.27;1.27;;;;;;;8.67;79.01;95058.97;4391784;32;20267;-55
2023/03/18 02:35:09;;;;;;;1.90;1.70;;;;;;;8.74;78.60;95060.16;4375562;32;20343;-51
2023/03/18 02:37:34;;;;;;;2.10;2.00;;;;;;;8.72;78.96;95064.97;4391485;32;20367;-54
2023/03/18 02:40:19;;;;;;;1.17;1.17;;;;;;;8.72;78.91;95066.81;4391942;32;20280;-55
2023/03/18 02:42:46;;;;;;;6.83;1.60;;;;;;;8.70;79.21;95068.97;4375220;32;20207;-55
2023/03/18 02:45:31;;;;;;;1.60;1.60;;;;;;;8.76;78.78;95073.09;4378827;32;20288;-53
2023/03/18 02:47:58;;;;;;;1.40;1.37;;;;;;;8.74;78.65;95069.94;4374845;32;20342;-56
2023/03/18 02:50:24;;;;;;;1.73;1.63;;;;;;;8.72;79.06;95074.75;4385398;32;20297;-55
2023/03/18 02:52:49;;;;;;;1.00;1.00;;;;;;;8.72;78.87;95072.91;4387493;32;20288;-54
2023/03/18 02:55:14;;;;;;;1.80;1.60;;;;;;;8.77;78.52;95077.31;4391552;32;20196;-56
2023/03/18 02:57:40;;;;;;;0.93;0.93;;;;;;;8.88;78.08;95071.59;4378746;32;20180;-55
2023/03/18 03:00:06;;;;;;;1.33;1.33;;;;;;;8.81;78.27;95076.44;4391800;32;20188;-55
2023/03/18 03:02:32;;;;;;;0.50;0.50;;;;;;;8.89;78.22;95078.44;4390410;32;20184;-55
2023/03/18 03:04:59;;;;;;;1.23;1.23;;;;;;;8.86;78.16;95075.59;4378028;32;20336;-55
2023/03/18 03:07:26;;;;;;;1.47;1.37;;;;;;;8.81;78.13;95087.03;4387346;32;20193;-54
2023/03/18 03:09:51;;;;;;;1.73;1.50;;;;;;;8.77;78.32;95093.97;4391360;32;20343;-53
2023/03/18 03:12:19;;;;;;;1.50;1.40;;;;;;;8.81;78.22;95091.53;4391368;32;20298;-52
2023/03/18 03:14:44;;;;;;;1.10;1.10;;;;;;;8.98;77.32;95097.09;4391667;32;20184;-57
2023/03/18 03:17:10;;;;;;;0.70;0.70;;;;;;;8.95;77.33;95095.78;4374414;32;20264;-54
2023/03/18 03:19:35;;;;;;;1.40;1.03;;;;;;;8.92;76.82;95096.41;4376819;32;20298;-55
2023/03/18 03:22:01;;;;;;;0.90;0.90;;;;;;;9.00;76.59;95104.72;4391314;32;20188;-54
2023/03/18 03:24:26;;;;;;;0.80;0.80;;;;;;;8.92;76.95;95100.91;4391127;32;20204;-50
2023/03/18 03:26:51;;;;;;;0.70;0.70;;;;;;;9.00;76.70;95105.53;4377373;32;20199;-54
2023/03/18 03:29:17;;;;;;;0.40;0.40;;;;;;;8.91;76.41;95102.75;4375978;32;20256;-55
2023/03/18 03:31:42;;;;;;;1.93;1.37;;;;;;;9.08;75.75;95112.81;4370647;32;20188;-54
2023/03/18 03:34:08;;;;;;;1.07;1.07;;;;;;;8.91;76.67;95109.91;4389980;32;20240;-51
2023/03/18 03:36:33;;;;;;;1.03;0.73;;;;;;;8.97;76.37;95111.38;4387300;32;20263;-55
2023/03/18 03:38:58;;;;;;;0.70;0.70;;;;;;;8.97;76.17;95111.38;4376672;32;20198;-56
2023/03/18 03:41:24;;;;;;;1.27;1.23;;;;;;;8.87;77.14;95120.28;4389987;32;20225;-54
2023/03/18 03:43:50;;;;;;;0.73;0.73;;;;;;;8.94;76.18;95114.59;4372462;32;20188;-52
2023/03/18 03:46:15;;;;;;;0.53;0.53;;;;;;;8.94;75.91;95112.75;4386049;32;20330;-54
2023/03/18 03:48:40;;;;;;;0.70;0.70;;;;;;;8.95;76.21;95121.47;4391979;32;20203;-55
2023/03/18 03:51:06;;;;;;;0.87;0.87;;;;;;;8.98;76.62;95118.25;4389790;32;20192;-55
2023/03/18 03:53:32;;;;;;;1.37;1.27;;;;;;;8.91;76.30;95118.62;4371688;32;20184;-54
2023/03/18 03:55:58;;;;;;;0.90;0.90;;;;;;;8.87;76.52;95116.84;4376969;32;20203;-53
2023/03/18 03:58:24;;;;;;;1.17;1.17;;;;;;;8.84;76.55;95118.19;4391267;32;20288;-55
2023/03/18 04:00:49;;;;;;;0.83;0.83;;;;;;;8.88;76.75;95123.69;4391183;32;20272;-53
2023/03/18 04:03:15;;;;;;;0.97;0.97;;;;;;;9.07;74.93;95127.12;4383583;32;20199;-54
2023/03/18 04:05:42;;;;;;;1.00;1.00;;;;;;;9.04;74.06;95127.69;4393057;32;20184;-54
2023/03/18 04:08:07;;;;;;;0.53;0.53;;;;;;;9.01;74.39;95130.13;4388183;32;20224;-56
2023/03/18 04:10:35;;;;;;;0.70;0.70;;;;;;;9.00;74.96;95125.91;4384548;32;20299;-56
2023/03/18 04:13:02;;;;;;;0.97;0.97;;;;;;;8.94;75.21;95125.97;4388363;32;20203;-56
2023/03/18 04:15:27;;;;;;;0.80;0.80;;;;;;;9.23;73.78;95131.09;4390854;32;20276;-56
2023/03/18 04:17:53;;;;;;;0.70;0.70;;;;;;;9.11;73.71;95140.56;4384534;32;20366;-56
2023/03/18 04:20:19;;;;;;;1.00;1.00;;;;;;;9.19;73.49;95137.25;4388465;32;20242;-55
2023/03/18 04:22:46;;;;;;;0.97;0.97;;;;;;;9.18;73.71;95133.03;4390576;32;20510;-55
2023/03/18 04:25:13;;;;;;;0.80;0.80;;;;;;;9.01;74.67;95138.06;4368066;32;20292;-56
2023/03/18 04:27:39;;;;;;;0.87;0.87;;;;;;;8.98;74.51;95133.34;4387098;32;20354;-55
2023/03/18 04:30:07;;;;;;;0.67;0.67;;;;;;;9.05;73.91;95139.06;4382601;32;20288;-56
2023/03/18 04:32:32;;;;;;;0.90;0.90;;;;;;;9.05;73.46;95133.75;4390707;32;20272;-55
2023/03/18 04:34:58;;;;;;;0.70;0.70;;;;;;;9.00;74.09;95149.72;4388060;32;20324;-57
2023/03/18 04:37:24;;;;;;;3.90;0.90;;;;;;;8.94;74.51;95139.19;4390524;32;20207;-55
2023/03/18 04:39:49;;;;;;;0.43;0.43;;;;;;;8.82;74.99;95133.56;4389283;32;20325;-53
2023/03/18 04:42:16;;;;;;;0.83;0.80;;;;;;;8.84;74.42;95138.56;4376688;32;20180;-54
2023/03/18 04:44:42;;;;;;;0.67;0.67;;;;;;;9.13;73.00;95143.72;4378489;32;20176;-55
2023/03/18 04:47:09;;;;;;;1.00;1.00;;;;;;;8.86;74.22;95137.22;4386725;32;20284;-55
2023/03/18 04:49:36;;;;;;;0.73;0.73;;;;;;;8.80;75.06;95148.13;4390423;32;20272;-56
2023/03/18 04:52:02;;;;;;;0.50;0.50;;;;;;;8.92;74.79;95141.38;4376959;32;20354;-54
2023/03/18 04:54:28;;;;;;;0.87;0.87;;;;;;;8.87;74.72;95144.06;4371062;32;20303;-53
2023/03/18 04:56:53;;;;;;;0.87;0.87;;;;;;;8.86;74.74;95147.00;4387735;32;20364;-55
2023/03/18 04:59:19;;;;;;;0.90;0.90;;;;;;;8.86;74.31;95145.16;4389184;32;20272;-55
2023/03/18 05:01:44;;;;;;;2.93;0.73;;;;;;;8.87;74.50;95144.06;4390415;32;20181;-56
2023/03/18 05:04:09;;;;;;;0.97;0.97;;;;;;;8.78;74.84;95139.69;4377949;32;20199;-52
2023/03/18 05:06:36;;;;;;;0.33;0.33;;;;;;;8.81;74.89;95132.00;4385267;32;20230;-53
2023/03/18 05:09:04;;;;;;;1.70;1.27;;;;;;;8.98;73.79;95141.28;4375035;32;20310;-56
2023/03/18 05:11:29;;;;;;;1.17;1.17;;;;;;;8.85;73.76;95140.94;4376912;32;20295;-53
2023/03/18 05:13:55;;;;;;;0.50;0.50;;;;;;;8.88;74.49;95139.56;4390124;32;20346;-54
2023/03/18 05:16:21;;;;;;;0.63;0.63;;;;;;;8.83;74.67;95137.00;4384058;32;20180;-55
2023/03/18 05:18:46;;;;;;;0.93;0.93;;;;;;;8.68;75.02;95140.66;4367950;32;20230;-55
2023/03/18 05:21:11;;;;;;;0.70;0.70;;;;;;;8.93;73.77;95129.72;4389444;32;20207;-56
2023/03/18 05:23:37;;;;;;;1.37;0.70;;;;;;;9.04;73.19;95134.84;4390621;32;20202;-55
2023/03/18 05:26:05;;;;;;;2.03;1.83;;;;;;;9.10;72.97;95139.00;4382253;32;20192;-56
2023/03/18 05:28:32;;;;;;;0.77;0.77;;;;;;;8.74;73.85;95142.12;4378613;32;20192;-56
2023/03/18 05:30:58;;;;;;;1.10;1.10;;;;;;;8.96;73.19;95141.56;4373626;32;20292;-54
2023/03/18 05:33:23;;;;;;;0.70;0.70;;;;;;;8.81;74.27;95144.44;4390436;32;20276;-55
2023/03/18 05:35:49;;;;;;;0.90;0.90;;;;;;;8.89;73.88;95141.94;4385163;32;20193;-54
2023/03/18 05:38:15;;;;;;;0.63;0.63;;;;;;;8.80;74.08;95142.84;4390232;32;20241;-54
2023/03/18 05:40:40;;;;;;;0.40;0.40;;;;;;;8.85;74.35;95156.78;4392886;32;20193;-55
2023/03/18 05:43:05;;;;;;;1.50;0.97;;;;;;;8.98;73.88;95149.22;4392784;32;20251;-54
2023/03/18 05:45:30;;;;;;;0.70;0.70;;;;;;;9.06;73.48;95151.22;4389617;32;20287;-53
2023/03/18 05:47:56;;;;;;;0.80;0.80;;;;;;;9.05;73.46;95149.62;4376947;32;20260;-56
2023/03/18 05:50:32;;;;;;;0.70;0.70;;;;;;;9.06;73.14;95146.72;4382757;32;20239;-54
2023/03/18 05:52:58;;;;;;;1.00;1.00;;;;;;;9.18;72.62;95144.41;4389625;32;20184;-56
2023/03/18 05:55:23;;;;;;;1.37;1.10;;;;;;;9.06;73.24;95151.22;4378542;32;20295;-56
2023/03/18 05:57:49;;;;;;;0.70;0.70;;;;;;;9.03;73.68;95157.88;4382148;32;20371;-56
2023/03/18 06:00:17;;;;;;;0.83;0.83;;;;;;;8.84;74.57;95159.72;4389330;32;20200;-56
2023/03/18 06:02:43;;;;;;;1.13;0.87;;;;;;;9.06;73.73;95167.09;4392246;32;20242;-56
2023/03/18 06:05:09;;;;;;;1.40;1.30;;;;;;;8.92;74.06;95167.03;4372260;32;20287;-56
2023/03/18 06:07:35;;;;;;;3.67;1.17;;;;;;;8.89;74.23;95171.03;4391633;32;20355;-55
2023/03/18 06:10:00;;;;;;;1.83;1.03;;;;;;;8.91;74.34;95160.94;4391303;32;20192;-53
2023/03/18 06:12:27;;;;;;;1.00;1.00;;;;;;;8.84;74.70;95165.03;4382425;32;20381;-55
2023/03/18 06:14:53;;;;;;;1.37;1.37;;;;;;;8.88;74.89;95166.81;4378309;32;20197;-53
2023/03/18 06:17:19;;;;;;;1.10;1.00;;;;;;;8.93;74.84;95164.09;4393175;32;20367;-55
2023/03/18 06:19:45;;;;;;;0.50;0.50;;;;;;;9.00;74.63;95165.59;4379496;32;20298;-55
2023/03/18 06:22:11;;;;;;;1.50;1.07;;;;;;;8.79;75.13;95168.50;4393912;32;20280;-55
2023/03/18 06:24:36;;;;;;;0.83;0.83;;;;;;;8.89;75.03;95163.09;4376259;32;20188;-54
2023/03/18 06:27:02;;;;;;;0.90;0.90;;;;;;;8.70;76.08;95167.59;4391468;32;20189;-54
2023/03/18 06:29:28;;;;;;;1.47;1.37;;;;;;;8.78;75.97;95171.44;4377718;32;20189;-56
2023/03/18 06:31:54;;;;;;;0.53;0.53;;;;;;;8.74;75.72;95168.56;4377560;32;20188;-56
2023/03/18 06:34:19;;;;;;;0.50;0.50;;;;;;;8.90;75.22;95162.03;4390538;32;20284;-56
2023/03/18 06:36:44;;;;;;;1.37;1.27;;;;;;;8.92;75.00;95167.81;4367351;32;20196;-52
2023/03/18 06:39:11;;;;;;;0.80;0.80;;;;;;;8.98;75.10;95170.38;4392655;32;20188;-55
2023/03/18 06:41:36;;;;;;;0.80;0.80;;;;;;;9.03;74.89;95172.94;4390285;32;20204;-56
2023/03/18 06:44:04;;;;;;;0.80;0.80;;;;;;;9.17;74.58;95169.28;4390045;32;20326;-56
2023/03/18 06:46:29;;;;;;;3.23;1.27;;;;;;;9.07;74.26;95169.44;4389590;32;20180;-55
2023/03/18 06:48:54;;;;;;;0.57;0.57;;;;;;;9.23;74.71;95177.94;4392177;32;20333;-56
2023/03/18 06:51:20;;;;;;;0.17;0.17;;;;;;;9.06;74.38;95178.47;4392225;32;20193;-56
2023/03/18 06:53:46;;;;;;;1.70;1.03;;;;;;;9.12;75.40;95176.53;4391874;32;20184;-54
2023/03/18 06:56:14;;;;;;;1.80;1.03;;;;;;;9.08;75.82;95172.88;4374191;32;20177;-56
2023/03/18 06:58:40;;;;;;;1.20;1.17;;;;;;;9.29;74.33;95171.50;4389465;32;20203;-56
2023/03/18 07:01:05;;;;;;;0.30;0.30;;;;;;;9.43;72.72;95177.63;4371921;32;20276;-56
2023/03/18 07:03:31;;;;;;;0.53;0.53;;;;;;;9.38;73.40;95177.69;4377313;32;20199;-55
2023/03/18 07:05:57;;;;;;;0.60;0.60;;;;;;;9.44;73.71;95171.25;4389275;32;20236;-56
2023/03/18 07:08:22;;;;;;;1.10;1.10;;;;;;;9.44;72.83;95176.56;4382729;32;20279;-54
2023/03/18 07:10:51;;;;;;;0.73;0.73;;;;;;;9.59;73.35;95186.09;4388864;32;20197;-57
2023/03/18 07:13:17;;;;;;;2.00;1.40;;;;;;;9.57;73.57;95182.97;4387783;32;20228;-56
2023/03/18 07:15:44;;;;;;;0.97;0.67;;;;;;;9.56;73.74;95174.22;4375884;32;20192;-54
2023/03/18 07:18:09;;;;;;;0.80;0.80;;;;;;;9.58;73.88;95172.06;4389369;32;20196;-55
2023/03/18 07:20:35;;;;;;;1.80;1.40;;;;;;;9.78;71.94;95170.94;4372765;32;20359;-53
2023/03/18 07:23:02;;;;;;;0.73;0.73;;;;;;;9.87;71.98;95179.03;4388047;32;20176;-55
2023/03/18 07:25:28;;;;;;;0.77;0.77;;;;;;;9.76;72.51;95177.63;4388705;32;20233;-54
2023/03/18 07:27:54;;;;;;;0.60;0.60;;;;;;;9.90;70.32;95192.47;4375823;32;20282;-53
2023/03/18 07:30:20;;;;;;;1.37;1.37;;;;;;;9.93;70.07;95185.81;4378410;32;20285;-53
2023/03/18 07:32:45;;;;;;;1.13;1.03;;;;;;;9.97;72.65;95181.50;4387772;32;20176;-57
2023/03/18 07:35:13;;;;;;;0.60;0.60;;;;;;;10.02;72.08;95180.59;4387989;32;20184;-55
2023/03/18 07:37:41;;;;;;;2.17;1.20;;;;;;;10.10;71.05;95183.37;4386682;32;20220;-56
2023/03/18 07:40:09;;;;;;;0.83;0.83;;;;;;;10.10;70.12;95190.53;4386012;32;20196;-56
2023/03/18 07:42:34;;;;;;;1.20;0.80;;;;;;;10.25;69.90;95188.41;4381708;32;20271;-55
2023/03/18 07:45:00;;;;;;;1.23;1.13;;;;;;;10.26;69.47;95183.91;4387634;32;20198;-54
2023/03/18 07:47:25;;;;;;;0.57;0.57;;;;;;;10.40;69.44;95189.97;4371218;32;20212;-56
2023/03/18 07:49:51;;;;;;;1.17;0.87;;;;;;;10.39;69.13;95183.13;4385496;32;20197;-56
2023/03/18 07:52:17;;;;;;;1.00;0.93;;;;;;;10.39;70.35;95182.34;4388096;32;20272;-56
2023/03/18 07:54:43;;;;;;;0.93;0.93;;;;;;;10.40;70.09;95178.59;4378514;32;20180;-57
2023/03/18 07:57:09;;;;;;;2.00;1.47;;;;;;;10.60;69.32;95189.59;4373525;32;20188;-55
2023/03/18 07:59:36;;;;;;;0.67;0.67;;;;;;;10.68;70.87;95196.06;4381480;32;20276;-55
2023/03/18 08:02:03;;;;;;;6.33;1.67;;;;;;;10.74;69.94;95194.09;4386128;32;20210;-55
2023/03/18 08:04:30;;;;;;;1.10;1.00;;;;;;;10.82;69.81;95199.47;4382821;32;20189;-55
2023/03/18 08:06:56;;;;;;;0.77;0.77;;;;;;;10.82;70.44;95198.69;4369923;32;20199;-53
2023/03/18 08:09:22;;;;;;;0.97;0.97;;;;;;;10.86;70.33;95205.78;4387377;32;20270;-56
2023/03/18 08:11:47;;;;;;;0.50;0.50;;;;;;;10.86;68.87;95207.63;4386506;32;20211;-56
2023/03/18 08:14:12;;;;;;;0.50;0.50;;;;;;;10.92;67.75;95204.59;4375056;32;20215;-54
2023/03/18 08:16:38;;;;;;;0.90;0.90;;;;;;;10.97;66.85;95199.19;4384017;32;20208;-52
2023/03/18 08:19:03;;;;;;;0.73;0.73;;;;;;;10.95;66.91;95198.69;4390355;32;20228;-50
2023/03/18 08:21:29;;;;;;;0.30;0.30;;;;;;;11.03;65.86;95202.50;4374150;32;20259;-62
2023/03/18 08:23:55;;;;;;;0.77;0.63;;;;;;;12.73;84.11;95188.97;4390066;32;20206;-62
2023/03/18 08:26:21;;;;;;;0.43;0.43;;;;;;;13.31;78.52;95187.81;4388084;32;20185;-61
2023/03/18 08:28:46;;;;;;;0.80;0.80;;;;;;;13.57;71.29;95193.94;4388935;32;20506;-62
2023/03/18 08:31:13;;;;;;;1.30;0.83;;;;;;;13.91;67.17;95195.78;4386306;32;20184;-61
2023/03/18 08:33:38;;;;;;;3.20;1.03;;;;;;;14.15;62.67;95194.44;4382606;32;20185;-62
2023/03/18 08:36:04;;;;;;;1.17;0.50;;;;;;;14.42;61.75;95199.41;4389955;32;20248;-62
2023/03/18 08:38:30;;;;;;;0.33;0.33;;;;;;;14.62;60.21;95195.25;4372902;32;20196;-62
2023/03/18 08:40:55;;;;;;;0.67;0.57;;;;;;;14.66;58.94;95198.84;4389213;32;20191;-62
2023/03/18 08:43:21;;;;;;;0.57;0.57;;;;;;;14.71;58.96;95196.00;4388505;32;20188;-62
2023/03/18 08:45:51;;;;;;;1.50;0.97;;;;;;;14.78;58.48;95201.59;4387081;32;20246;-61
2023/03/18 08:48:16;;;;;;;0.70;0.70;;;;;;;14.78;57.95;95197.03;4375740;32;20200;-61
2023/03/18 08:50:42;;;;;;;1.37;1.37;;;;;;;14.86;57.42;95192.75;4378240;32;20200;-62
2023/03/18 08:53:08;;;;;;;0.20;0.20;;;;;;;14.89;57.19;95194.78;4369969;32;20201;-62
2023/03/18 08:55:38;;;;;;;1.00;1.00;;;;;;;14.90;56.79;95192.91;4376191;32;20248;-62
2023/03/18 08:58:05;;;;;;;0.90;0.90;;;;;;;14.93;56.04;95192.25;4382337;32;20192;-62
2023/03/18 09:00:32;;;;;;;0.93;0.57;;;;;;;14.99;55.58;95189.06;4393130;32;20187;-62
2023/03/18 09:02:57;;;;;;;0.90;0.77;;;;;;;14.96;54.75;95189.72;4379544;32;20283;-62
2023/03/18 09:05:23;;;;;;;0.50;0.50;;;;;;;15.00;54.59;95187.97;4375827;32;20219;-62
2023/03/18 09:07:49;;;;;;;0.97;0.87;;;;;;;14.99;54.88;95196.28;4393401;32;20228;-61
2023/03/18 09:10:16;;;;;;;2.80;0.47;;;;;;;15.00;54.47;95192.50;4375268;32;20239;-61
2023/03/18 09:12:42;;;;;;;0.60;0.60;;;;;;;14.99;53.47;95199.75;4383870;32;20169;-62
2023/03/18 09:15:10;;;;;;;0.73;0.60;;;;;;;14.96;53.79;95191.63;4373986;32;20199;-62
2023/03/18 09:17:39;;;;;;;0.30;0.30;;;;;;;14.91;52.92;95189.91;4370237;32;20180;-62
2023/03/18 09:20:11;;;;;;;0.60;0.60;;;;;;;15.00;53.04;95195.97;4378683;32;20329;-61
2023/03/18 09:22:38;;;;;;;0.50;0.50;;;;;;;14.99;52.63;95191.72;4388761;32;20211;-62
2023/03/18 09:25:03;;;;;;;1.23;1.03;;;;;;;15.01;52.62;95192.19;4375781;32;20220;-62
2023/03/18 09:27:29;;;;;;;0.67;0.67;;;;;;;15.03;52.03;95192.66;4387898;32;20185;-54
2023/03/18 09:29:55;;;;;;;0.60;0.60;;;;;;;14.61;49.54;95185.66;4387361;32;20247;-50
2023/03/18 09:32:21;;;;;;;0.40;0.40;;;;;;;14.19;50.05;95182.03;4382938;32;20199;-53
2023/03/18 09:34:47;;;;;;;4.27;1.10;;;;;;;13.95;50.87;95186.03;4375828;32;20259;-51
2023/03/18 09:37:13;;;;;;;0.30;0.30;;;;;;;13.81;50.40;95187.31;4379939;32;20259;-52
2023/03/18 09:39:42;;;;;;;0.70;0.70;;;;;;;13.72;50.14;95190.78;4388109;32;20207;-53
2023/03/18 09:42:26;;;;;;;0.50;0.50;;;;;;;13.59;50.21;95188.28;4379689;32;20264;-53
2023/03/18 09:44:58;;;;;;;0.43;0.43;;;;;;;13.42;50.70;95186.41;4387877;32;20188;-52
2023/03/18 09:47:52;;;;;;;0.90;0.90;;;;;;;13.39;50.78;95179.06;4383053;32;20201;-55
2023/03/18 09:50:56;;;;;;;0.60;0.60;;;;;;;13.30;51.17;95181.69;4386325;32;20255;-50
2023/03/18 09:53:40;;;;;;;0.33;0.33;;;;;;;13.22;51.45;95179.06;4381711;32;20256;-51
2023/03/18 09:56:14;;;;;;;0.63;0.63;;;;;;;13.25;51.44;95178.44;4374394;32;20199;-53
2023/03/18 09:58:57;;;;;;;0.67;0.67;;;;;;;13.25;51.52;95168.56;4378768;32;20241;-52
2023/03/18 10:01:25;;;;;;;0.67;0.67;;;;;;;13.27;51.14;95171.69;4391682;32;20218;-54
2023/03/18 10:04:06;;;;;;;1.13;0.87;;;;;;;13.28;51.01;95177.81;4388716;32;20247;-52
2023/03/18 10:06:32;;;;;;;0.60;0.60;;;;;;;13.30;51.07;95186.28;4371560;32;20199;-54
2023/03/18 10:09:08;;;;;;;1.43;0.70;;;;;;;13.40;50.85;95185.94;4376115;32;20234;-52
2023/03/18 10:11:46;;;;;;;1.73;0.80;;;;;;;13.66;51.96;95184.06;4377754;32;20202;-59
2023/03/18 10:14:36;;;;;;;0.90;0.90;;;;;;;14.10;61.08;95187.41;4383667;32;20181;-59
2023/03/18 10:17:21;;;;;;;0.83;0.83;;;;;;;14.22;52.08;95184.84;4372950;32;20230;-59
2023/03/18 10:19:56;;;;;;;0.50;0.50;;;;;;;14.48;50.20;95186.69;4390382;32;20196;-59
2023/03/18 10:22:27;;;;;;;1.47;0.80;;;;;;;14.94;52.36;95177.81;4376702;32;20196;-59
2023/03/18 10:25:10;;;;;;;0.93;0.93;;;;;;;15.67;54.48;95184.34;4392396;32;20249;-59
2023/03/18 10:27:56;;;;;;;0.70;0.50;;;;;;;15.48;43.93;95192.03;4386333;32;20189;-53
2023/03/18 10:30:43;;;;;;;1.80;1.07;;;;;;;16.02;44.46;95181.31;4382682;32;20204;-52
2023/03/18 10:33:45;;;;;;;0.57;0.47;;;;;;;15.57;43.13;95186.66;4390436;32;20219;-51
2023/03/18 10:36:22;;;;;;;0.63;0.63;;;;;;;15.28;43.24;95187.47;4387595;32;20189;-49
2023/03/18 10:38:50;;;;;;;0.70;0.70;;;;;;;14.93;43.74;95181.59;4379775;32;20232;-51
2023/03/18 10:41:22;;;;;;;1.13;0.87;;;;;;;14.67;44.50;95174.50;4391405;32;20187;-51
2023/03/18 10:43:50;;;;;;;2.27;1.10;;;;;;;14.58;45.09;95180.97;4370711;32;20228;-50
2023/03/18 10:46:18;;;;;;;0.53;0.53;;;;;;;14.59;45.34;95179.88;4390359;32;20176;-51
2023/03/18 10:48:59;;;;;;;0.50;0.50;;;;;;;14.68;44.40;95178.72;4383404;32;20234;-52
2023/03/18 10:51:49;;;;;;;0.93;0.90;;;;;;;14.61;45.74;95164.31;4387577;32;20223;-49
2023/03/18 10:54:41;;;;;;;1.07;1.07;;;;;;;14.85;43.45;95175.19;4371059;32;20196;-50
2023/03/18 10:57:13;;;;;;;1.27;0.87;;;;;;;14.87;43.48;95167.63;4372991;32;20184;-52
2023/03/18 10:59:39;;;;;;;0.97;0.97;;;;;;;14.86;43.13;95166.06;4390423;32;20183;-50
2023/03/18 11:02:14;;;;;;;1.00;1.00;;;;;;;14.97;43.54;95161.09;4390533;32;20282;-50
2023/03/18 11:04:53;;;;;;;0.87;0.87;;;;;;;14.81;44.05;95158.22;4373260;32;20188;-50
2023/03/18 11:07:24;;;;;;;1.07;0.80;;;;;;;14.73;43.80;95151.06;4372075;32;20211;-52
2023/03/18 11:09:51;;;;;;;0.20;0.20;;;;;;;14.59;44.39;95155.84;4387387;32;20224;-51
2023/03/18 11:12:21;;;;;;;0.63;0.60;;;;;;;14.57;45.01;95142.81;4386572;32;20203;-53
2023/03/18 11:14:49;;;;;;;1.13;0.83;;;;;;;14.55;45.05;95146.94;4390327;32;20207;-52
2023/03/18 11:17:30;;;;;;;0.40;0.40;;;;;;;14.70;45.06;95149.03;4393217;32;20219;-50
2023/03/18 11:20:06;;;;;;;1.30;1.30;;;;;;;14.80;44.80;95143.31;4375413;32;20237;-50
2023/03/18 11:22:32;;;;;;;2.20;2.00;;;;;;;15.01;43.96;95129.97;4390606;32;20202;-49
2023/03/18 11:25:18;;;;;;;1.70;1.37;;;;;;;15.07;43.97;95121.44;4373914;32;20242;-51
2023/03/18 11:27:50;;;;;;;0.83;0.83;;;;;;;15.18;43.74;95118.34;4371160;32;20199;-51
2023/03/18 11:30:24;;;;;;;1.83;0.80;;;;;;;15.31;43.54;95128.78;4387223;32;20193;-53
2023/03/18 11:33:03;;;;;;;2.10;0.90;;;;;;;15.23;44.07;95121.63;4388971;32;20177;-52
2023/03/18 11:35:43;;;;;;;0.67;0.67;;;;;;;15.10;44.54;95120.00;4375336;32;20214;-51
2023/03/18 11:38:19;;;;;;;0.97;0.97;;;;;;;14.90;45.37;95115.44;4385031;32;20223;-51
2023/03/18 11:40:45;;;;;;;0.60;0.60;;;;;;;14.92;45.01;95116.69;4391284;32;20180;-53
2023/03/18 11:43:18;;;;;;;2.23;1.43;;;;;;;15.15;44.12;95111.03;4386771;32;20226;-53
2023/03/18 11:45:51;;;;;;;1.00;0.93;;;;;;;15.24;44.45;95098.34;4375922;32;20184;-53